sensor_id;sensor_type;location;lat;lon;timestamp;pressure;altitude;pressure_sealevel;temperature;humidity
7168;BME280;3625;51.762;14.320;2023-08-08T00:01:06;60874.91;;;-143.07;100.00
7168;BME280;3625;51.762;14.320;2023-08-08T00:03:36;60874.91;;;-143.07;100.00
7168;BME280;3625;51.762;14.320;2023-08-08T00:06:04;60874.91;;;-143.07;100.00
7168;BME280;3625;51.762;14.320;2023-08-08T00:08:33;60874.91;;;-143.07;100.00
7168;BME280;3625;51.762;14.320;2023-08-08T00:11:01;60874.91;;;-143.07;100.00
7168;BME280;3625;51.762;14.320;2023-08-08T00:13:30;60874.91;;;-143.07;100.00
7168;BME280;3625;51.762;14.320;2023-08-08T00:15:59;60874.91;;;-143.07;100.00
7168;BME280;3625;51.762;14.320;2023-08-08T00:18:28;60874.91;;;-143.07;100.00
7168;BME280;3625;51.762;14.320;2023-08-08T00:20:58;60874.91;;;-143.07;100.00
7168;BME280;3625;51.762;14.320;2023-08-08T00:23:29;60874.91;;;-143.07;100.00
7168;BME280;3625;51.762;14.320;2023-08-08T00:25:57;60874.91;;;-143.07;100.00
7168;BME280;3625;51.762;14.320;2023-08-08T00:28:26;60874.91;;;-143.07;100.00
7168;BME280;3625;51.762;14.320;2023-08-08T00:30:55;60874.91;;;-143.07;100.00
7168;BME280;3625;51.762;14.320;2023-08-08T00:33:24;60874.91;;;-143.07;100.00
7168;BME280;3625;51.762;14.320;2023-08-08T00:35:53;60874.91;;;-143.07;100.00
7168;BME280;3625;51.762;14.320;2023-08-08T00:38:23;60874.91;;;-143.07;100.00
7168;BME280;3625;51.762;14.320;2023-08-08T00:40:52;60874.91;;;-143.07;100.00
7168;BME280;3625;51.762;14.320;2023-08-08T00:43:21;60874.91;;;-143.07;100.00
7168;BME280;3625;51.762;14.320;2023-08-08T00:45:50;60874.91;;;-143.07;100.00
7168;BME280;3625;51.762;14.320;2023-08-08T00:48:19;60874.91;;;-143.07;100.00
7168;BME280;3625;51.762;14.320;2023-08-08T00:50:50;60874.91;;;-143.07;100.00
7168;BME280;3625;51.762;14.320;2023-08-08T00:53:19;60874.91;;;-143.07;100.00
7168;BME280;3625;51.762;14.320;2023-08-08T00:55:54;60874.91;;;-143.07;100.00
7168;BME280;3625;51.762;14.320;2023-08-08T00:58:23;60874.91;;;-143.07;100.00
7168;BME280;3625;51.762;14.320;2023-08-08T01:00:52;60874.91;;;-143.07;100.00
7168;BME280;3625;51.762;14.320;2023-08-08T01:03:22;60874.91;;;-143.07;100.00
7168;BME280;3625;51.762;14.320;2023-08-08T01:05:59;60874.91;;;-143.07;100.00
7168;BME280;3625;51.762;14.320;2023-08-08T01:08:47;60874.91;;;-143.07;100.00
7168;BME280;3625;51.762;14.320;2023-08-08T01:11:18;60874.91;;;-143.07;100.00
7168;BME280;3625;51.762;14.320;2023-08-08T01:13:47;60874.91;;;-143.07;100.00
7168;BME280;3625;51.762;14.320;2023-08-08T01:16:16;60874.91;;;-143.07;100.00
7168;BME280;3625;51.762;14.320;2023-08-08T01:18:47;60874.91;;;-143.07;100.00
7168;BME280;3625;51.762;14.320;2023-08-08T01:21:17;60874.91;;;-143.07;100.00
7168;BME280;3625;51.762;14.320;2023-08-08T01:24:01;60874.91;;;-143.07;100.00
7168;BME280;3625;51.762;14.320;2023-08-08T01:26:35;60874.91;;;-143.07;100.00
7168;BME280;3625;51.762;14.320;2023-08-08T01:29:04;60874.91;;;-143.07;100.00
7168;BME280;3625;51.762;14.320;2023-08-08T01:31:33;60874.91;;;-143.07;100.00
7168;BME280;3625;51.762;14.320;2023-08-08T01:34:01;60874.91;;;-143.07;100.00
7168;BME280;3625;51.762;14.320;2023-08-08T01:36:34;60874.91;;;-143.07;100.00
7168;BME280;3625;51.762;14.320;2023-08-08T01:39:09;60874.91;;;-143.07;100.00
7168;BME280;3625;51.762;14.320;2023-08-08T01:41:43;60874.91;;;-143.07;100.00
7168;BME280;3625;51.762;14.320;2023-08-08T01:44:14;60874.91;;;-143.07;100.00
7168;BME280;3625;51.762;14.320;2023-08-08T01:46:44;60874.91;;;-143.07;100.00
7168;BME280;3625;51.762;14.320;2023-08-08T01:49:14;60874.91;;;-143.07;100.00
7168;BME280;3625;51.762;14.320;2023-08-08T01:51:42;60874.91;;;-143.07;100.00
7168;BME280;3625;51.762;14.320;2023-08-08T01:54:11;60874.91;;;-143.07;100.00
7168;BME280;3625;51.762;14.320;2023-08-08T01:56:43;60874.91;;;-143.07;100.00
7168;BME280;3625;51.762;14.320;2023-08-08T01:59:11;60874.91;;;-143.07;100.00
7168;BME280;3625;51.762;14.320;2023-08-08T02:01:42;60874.91;;;-143.07;100.00
7168;BME280;3625;51.762;14.320;2023-08-08T02:04:11;60874.91;;;-143.07;100.00
7168;BME280;3625;51.762;14.320;2023-08-08T02:06:40;60874.91;;;-143.07;100.00
7168;BME280;3625;51.762;14.320;2023-08-08T02:09:08;60874.91;;;-143.07;100.00
7168;BME280;3625;51.762;14.320;2023-08-08T02:11:37;60874.91;;;-143.07;100.00
7168;BME280;3625;51.762;14.320;2023-08-08T02:14:07;60874.91;;;-143.07;100.00
7168;BME280;3625;51.762;14.320;2023-08-08T02:16:36;60874.91;;;-143.07;100.00
7168;BME280;3625;51.762;14.320;2023-08-08T02:19:07;60874.91;;;-143.07;100.00
7168;BME280;3625;51.762;14.320;2023-08-08T02:21:36;60874.91;;;-143.07;100.00
7168;BME280;3625;51.762;14.320;2023-08-08T02:24:05;60874.91;;;-143.07;100.00
7168;BME280;3625;51.762;14.320;2023-08-08T02:26:34;60874.91;;;-143.07;100.00
7168;BME280;3625;51.762;14.320;2023-08-08T02:29:07;60874.91;;;-143.07;100.00
7168;BME280;3625;51.762;14.320;2023-08-08T02:31:36;60874.91;;;-143.07;100.00
7168;BME280;3625;51.762;14.320;2023-08-08T02:34:05;60874.91;;;-143.07;100.00
7168;BME280;3625;51.762;14.320;2023-08-08T02:36:34;60874.91;;;-143.07;100.00
7168;BME280;3625;51.762;14.320;2023-08-08T02:39:02;60874.91;;;-143.07;100.00
7168;BME280;3625;51.762;14.320;2023-08-08T02:41:31;60874.91;;;-143.07;100.00
7168;BME280;3625;51.762;14.320;2023-08-08T02:44:00;60874.91;;;-143.07;100.00
7168;BME280;3625;51.762;14.320;2023-08-08T02:46:30;60874.91;;;-143.07;100.00
7168;BME280;3625;51.762;14.320;2023-08-08T02:49:00;60874.91;;;-143.07;100.00
7168;BME280;3625;51.762;14.320;2023-08-08T02:51:29;60874.91;;;-143.07;100.00
7168;BME280;3625;51.762;14.320;2023-08-08T02:53:57;60874.91;;;-143.07;100.00
7168;BME280;3625;51.762;14.320;2023-08-08T02:56:28;60874.91;;;-143.07;100.00
7168;BME280;3625;51.762;14.320;2023-08-08T02:58:56;60874.91;;;-143.07;100.00
7168;BME280;3625;51.762;14.320;2023-08-08T03:01:25;60874.91;;;-143.07;100.00
7168;BME280;3625;51.762;14.320;2023-08-08T03:03:56;60874.91;;;-143.07;100.00
7168;BME280;3625;51.762;14.320;2023-08-08T03:06:26;60874.91;;;-143.07;100.00
7168;BME280;3625;51.762;14.320;2023-08-08T03:08:55;60874.91;;;-143.07;100.00
7168;BME280;3625;51.762;14.320;2023-08-08T03:11:24;60874.91;;;-143.07;100.00
7168;BME280;3625;51.762;14.320;2023-08-08T03:13:52;60874.91;;;-143.07;100.00
7168;BME280;3625;51.762;14.320;2023-08-08T03:16:21;60874.91;;;-143.07;100.00
7168;BME280;3625;51.762;14.320;2023-08-08T03:18:52;60874.91;;;-143.07;100.00
7168;BME280;3625;51.762;14.320;2023-08-08T03:21:24;60874.91;;;-143.07;100.00
7168;BME280;3625;51.762;14.320;2023-08-08T03:23:53;60874.91;;;-143.07;100.00
7168;BME280;3625;51.762;14.320;2023-08-08T03:26:21;60874.91;;;-143.07;100.00
7168;BME280;3625;51.762;14.320;2023-08-08T03:28:50;60874.91;;;-143.07;100.00
7168;BME280;3625;51.762;14.320;2023-08-08T03:31:28;60874.91;;;-143.07;100.00
7168;BME280;3625;51.762;14.320;2023-08-08T03:33:57;60874.91;;;-143.07;100.00
7168;BME280;3625;51.762;14.320;2023-08-08T03:36:28;60874.91;;;-143.07;100.00
7168;BME280;3625;51.762;14.320;2023-08-08T03:38:58;60874.91;;;-143.07;100.00
7168;BME280;3625;51.762;14.320;2023-08-08T03:41:26;60874.91;;;-143.07;100.00
7168;BME280;3625;51.762;14.320;2023-08-08T03:43:55;60874.91;;;-143.07;100.00
7168;BME280;3625;51.762;14.320;2023-08-08T03:46:25;60874.91;;;-143.07;100.00
7168;BME280;3625;51.762;14.320;2023-08-08T03:48:54;60874.91;;;-143.07;100.00
7168;BME280;3625;51.762;14.320;2023-08-08T03:51:23;60874.91;;;-143.07;100.00
7168;BME280;3625;51.762;14.320;2023-08-08T03:53:53;60874.91;;;-143.07;100.00
7168;BME280;3625;51.762;14.320;2023-08-08T03:56:21;60874.91;;;-143.07;100.00
7168;BME280;3625;51.762;14.320;2023-08-08T03:58:50;60874.91;;;-143.07;100.00
7168;BME280;3625;51.762;14.320;2023-08-08T04:01:19;60874.91;;;-143.07;100.00
7168;BME280;3625;51.762;14.320;2023-08-08T04:03:47;60874.91;;;-143.07;100.00
7168;BME280;3625;51.762;14.320;2023-08-08T04:06:16;60874.91;;;-143.07;100.00
7168;BME280;3625;51.762;14.320;2023-08-08T04:08:45;60874.91;;;-143.07;100.00
7168;BME280;3625;51.762;14.320;2023-08-08T04:11:15;60874.91;;;-143.07;100.00
7168;BME280;3625;51.762;14.320;2023-08-08T04:13:43;60874.91;;;-143.07;100.00
7168;BME280;3625;51.762;14.320;2023-08-08T04:16:12;60874.91;;;-143.07;100.00
7168;BME280;3625;51.762;14.320;2023-08-08T04:18:41;60874.91;;;-143.07;100.00
7168;BME280;3625;51.762;14.320;2023-08-08T04:21:10;60874.91;;;-143.07;100.00
7168;BME280;3625;51.762;14.320;2023-08-08T04:23:39;60874.91;;;-143.07;100.00
7168;BME280;3625;51.762;14.320;2023-08-08T04:26:07;60874.91;;;-143.07;100.00
7168;BME280;3625;51.762;14.320;2023-08-08T04:28:37;60874.91;;;-143.07;100.00
7168;BME280;3625;51.762;14.320;2023-08-08T04:31:06;60874.91;;;-143.07;100.00
7168;BME280;3625;51.762;14.320;2023-08-08T04:33:35;60874.91;;;-143.07;100.00
7168;BME280;3625;51.762;14.320;2023-08-08T04:36:04;60874.91;;;-143.07;100.00
7168;BME280;3625;51.762;14.320;2023-08-08T04:38:33;60874.91;;;-143.07;100.00
7168;BME280;3625;51.762;14.320;2023-08-08T04:41:01;60874.91;;;-143.07;100.00
7168;BME280;3625;51.762;14.320;2023-08-08T04:43:30;60874.91;;;-143.07;100.00
7168;BME280;3625;51.762;14.320;2023-08-08T04:46:00;60874.91;;;-143.07;100.00
7168;BME280;3625;51.762;14.320;2023-08-08T04:48:30;60874.91;;;-143.07;100.00
7168;BME280;3625;51.762;14.320;2023-08-08T04:51:00;60874.91;;;-143.07;100.00
7168;BME280;3625;51.762;14.320;2023-08-08T04:53:28;60874.91;;;-143.07;100.00
7168;BME280;3625;51.762;14.320;2023-08-08T04:55:57;60874.91;;;-143.07;100.00
7168;BME280;3625;51.762;14.320;2023-08-08T04:58:26;60874.91;;;-143.07;100.00
7168;BME280;3625;51.762;14.320;2023-08-08T05:00:55;60874.91;;;-143.07;100.00
7168;BME280;3625;51.762;14.320;2023-08-08T05:03:25;60874.91;;;-143.07;100.00
7168;BME280;3625;51.762;14.320;2023-08-08T05:05:54;60874.91;;;-143.07;100.00
7168;BME280;3625;51.762;14.320;2023-08-08T05:08:22;60874.91;;;-143.07;100.00
7168;BME280;3625;51.762;14.320;2023-08-08T05:10:51;60874.91;;;-143.07;100.00
7168;BME280;3625;51.762;14.320;2023-08-08T05:13:20;60874.91;;;-143.07;100.00
7168;BME280;3625;51.762;14.320;2023-08-08T05:15:48;60874.91;;;-143.07;100.00
7168;BME280;3625;51.762;14.320;2023-08-08T05:18:17;60874.91;;;-143.07;100.00
7168;BME280;3625;51.762;14.320;2023-08-08T05:20:47;60874.91;;;-143.07;100.00
7168;BME280;3625;51.762;14.320;2023-08-08T05:23:16;60874.91;;;-143.07;100.00
7168;BME280;3625;51.762;14.320;2023-08-08T05:25:45;60874.91;;;-143.07;100.00
7168;BME280;3625;51.762;14.320;2023-08-08T05:28:14;60874.91;;;-143.07;100.00
7168;BME280;3625;51.762;14.320;2023-08-08T05:30:42;60874.91;;;-143.07;100.00
7168;BME280;3625;51.762;14.320;2023-08-08T05:33:11;60874.91;;;-143.07;100.00
7168;BME280;3625;51.762;14.320;2023-08-08T05:35:40;60874.91;;;-143.07;100.00
7168;BME280;3625;51.762;14.320;2023-08-08T05:38:10;60874.91;;;-143.07;100.00
7168;BME280;3625;51.762;14.320;2023-08-08T05:40:38;60874.91;;;-143.07;100.00
7168;BME280;3625;51.762;14.320;2023-08-08T05:43:07;60874.91;;;-143.07;100.00
7168;BME280;3625;51.762;14.320;2023-08-08T05:45:36;60874.91;;;-143.07;100.00
7168;BME280;3625;51.762;14.320;2023-08-08T05:48:06;60874.91;;;-143.07;100.00
7168;BME280;3625;51.762;14.320;2023-08-08T05:50:37;60874.91;;;-143.07;100.00
7168;BME280;3625;51.762;14.320;2023-08-08T05:53:05;60874.91;;;-143.07;100.00
7168;BME280;3625;51.762;14.320;2023-08-08T05:55:36;60874.91;;;-143.07;100.00
7168;BME280;3625;51.762;14.320;2023-08-08T05:58:04;60874.91;;;-143.07;100.00
7168;BME280;3625;51.762;14.320;2023-08-08T06:00:33;60874.91;;;-143.07;100.00
7168;BME280;3625;51.762;14.320;2023-08-08T06:03:02;60874.91;;;-143.07;100.00
7168;BME280;3625;51.762;14.320;2023-08-08T06:05:31;60874.91;;;-143.07;100.00
7168;BME280;3625;51.762;14.320;2023-08-08T06:08:00;60874.91;;;-143.07;100.00
7168;BME280;3625;51.762;14.320;2023-08-08T06:10:29;60874.91;;;-143.07;100.00
7168;BME280;3625;51.762;14.320;2023-08-08T06:12:58;60874.91;;;-143.07;100.00
7168;BME280;3625;51.762;14.320;2023-08-08T06:15:27;60874.91;;;-143.07;100.00
7168;BME280;3625;51.762;14.320;2023-08-08T06:17:57;60874.91;;;-143.07;100.00
7168;BME280;3625;51.762;14.320;2023-08-08T06:20:25;60874.91;;;-143.07;100.00
7168;BME280;3625;51.762;14.320;2023-08-08T06:22:56;60874.91;;;-143.07;100.00
7168;BME280;3625;51.762;14.320;2023-08-08T06:25:26;60874.91;;;-143.07;100.00
7168;BME280;3625;51.762;14.320;2023-08-08T06:27:55;60874.91;;;-143.07;100.00
7168;BME280;3625;51.762;14.320;2023-08-08T06:30:26;60874.91;;;-143.07;100.00
7168;BME280;3625;51.762;14.320;2023-08-08T06:32:54;60874.91;;;-143.07;100.00
7168;BME280;3625;51.762;14.320;2023-08-08T06:35:23;60874.91;;;-143.07;100.00
7168;BME280;3625;51.762;14.320;2023-08-08T06:37:51;60874.91;;;-143.07;100.00
7168;BME280;3625;51.762;14.320;2023-08-08T06:40:20;60874.91;;;-143.07;100.00
7168;BME280;3625;51.762;14.320;2023-08-08T06:42:49;60874.91;;;-143.07;100.00
7168;BME280;3625;51.762;14.320;2023-08-08T06:45:18;60874.91;;;-143.07;100.00
7168;BME280;3625;51.762;14.320;2023-08-08T06:47:47;60874.91;;;-143.07;100.00
7168;BME280;3625;51.762;14.320;2023-08-08T06:50:16;60874.91;;;-143.07;100.00
7168;BME280;3625;51.762;14.320;2023-08-08T06:52:47;60874.91;;;-143.07;100.00
7168;BME280;3625;51.762;14.320;2023-08-08T06:55:16;60874.91;;;-143.07;100.00
7168;BME280;3625;51.762;14.320;2023-08-08T06:57:45;60874.91;;;-143.07;100.00
7168;BME280;3625;51.762;14.320;2023-08-08T07:00:14;60874.91;;;-143.07;100.00
7168;BME280;3625;51.762;14.320;2023-08-08T07:02:43;60874.91;;;-143.07;100.00
7168;BME280;3625;51.762;14.320;2023-08-08T07:05:14;60874.91;;;-143.07;100.00
7168;BME280;3625;51.762;14.320;2023-08-08T07:07:42;60874.91;;;-143.07;100.00
7168;BME280;3625;51.762;14.320;2023-08-08T07:10:12;60874.91;;;-143.07;100.00
7168;BME280;3625;51.762;14.320;2023-08-08T07:12:41;60874.91;;;-143.07;100.00
7168;BME280;3625;51.762;14.320;2023-08-08T07:15:10;60874.91;;;-143.07;100.00
7168;BME280;3625;51.762;14.320;2023-08-08T07:17:39;60874.91;;;-143.07;100.00
7168;BME280;3625;51.762;14.320;2023-08-08T07:20:08;60874.91;;;-143.07;100.00
7168;BME280;3625;51.762;14.320;2023-08-08T07:22:42;60874.91;;;-143.07;100.00
7168;BME280;3625;51.762;14.320;2023-08-08T07:25:10;60874.91;;;-143.07;100.00
7168;BME280;3625;51.762;14.320;2023-08-08T07:27:40;60874.91;;;-143.07;100.00
7168;BME280;3625;51.762;14.320;2023-08-08T07:30:09;60874.91;;;-143.07;100.00
7168;BME280;3625;51.762;14.320;2023-08-08T07:32:39;60874.91;;;-143.07;100.00
7168;BME280;3625;51.762;14.320;2023-08-08T07:35:08;60874.91;;;-143.07;100.00
7168;BME280;3625;51.762;14.320;2023-08-08T07:37:38;60874.91;;;-143.07;100.00
7168;BME280;3625;51.762;14.320;2023-08-08T07:40:15;60874.91;;;-143.07;100.00
7168;BME280;3625;51.762;14.320;2023-08-08T07:42:46;60874.91;;;-143.07;100.00
7168;BME280;3625;51.762;14.320;2023-08-08T07:45:15;60874.91;;;-143.07;100.00
7168;BME280;3625;51.762;14.320;2023-08-08T07:47:44;60874.91;;;-143.07;100.00
7168;BME280;3625;51.762;14.320;2023-08-08T07:50:14;60874.91;;;-143.07;100.00
7168;BME280;3625;51.762;14.320;2023-08-08T07:52:43;60874.91;;;-143.07;100.00
7168;BME280;3625;51.762;14.320;2023-08-08T07:55:11;60874.91;;;-143.07;100.00
7168;BME280;3625;51.762;14.320;2023-08-08T07:57:41;60874.91;;;-143.07;100.00
7168;BME280;3625;51.762;14.320;2023-08-08T08:00:11;60874.91;;;-143.07;100.00
7168;BME280;3625;51.762;14.320;2023-08-08T08:02:41;60874.91;;;-143.07;100.00
7168;BME280;3625;51.762;14.320;2023-08-08T08:05:11;60874.91;;;-143.07;100.00
7168;BME280;3625;51.762;14.320;2023-08-08T08:07:41;60874.91;;;-143.07;100.00
7168;BME280;3625;51.762;14.320;2023-08-08T08:10:12;60874.91;;;-143.07;100.00
7168;BME280;3625;51.762;14.320;2023-08-08T08:12:42;60874.91;;;-143.07;100.00
7168;BME280;3625;51.762;14.320;2023-08-08T08:15:11;60874.91;;;-143.07;100.00
7168;BME280;3625;51.762;14.320;2023-08-08T08:17:40;60874.91;;;-143.07;100.00
7168;BME280;3625;51.762;14.320;2023-08-08T08:20:10;60874.91;;;-143.07;100.00
7168;BME280;3625;51.762;14.320;2023-08-08T08:22:39;60874.91;;;-143.07;100.00
7168;BME280;3625;51.762;14.320;2023-08-08T08:25:08;60874.91;;;-143.07;100.00
7168;BME280;3625;51.762;14.320;2023-08-08T08:42:17;100280.47;;;18.42;69.41
7168;BME280;3625;51.762;14.320;2023-08-08T08:44:46;100278.19;;;18.19;70.45
7168;BME280;3625;51.762;14.320;2023-08-08T08:47:21;100284.25;;;18.06;72.16
7168;BME280;3625;51.762;14.320;2023-08-08T08:49:52;100284.25;;;18.06;71.22
7168;BME280;3625;51.762;14.320;2023-08-08T08:52:21;100282.44;;;18.07;70.91
7168;BME280;3625;51.762;14.320;2023-08-08T08:54:54;100294.88;;;18.39;69.52
7168;BME280;3625;51.762;14.320;2023-08-08T08:57:24;100288.84;;;18.67;69.26
7168;BME280;3625;51.762;14.320;2023-08-08T08:59:53;100289.16;;;19.07;67.78
7168;BME280;3625;51.762;14.320;2023-08-08T09:02:22;100283.41;;;19.57;64.97
7168;BME280;3625;51.762;14.320;2023-08-08T09:04:51;100276.34;;;20.25;62.54
7168;BME280;3625;51.762;14.320;2023-08-08T09:07:23;100290.78;;;20.78;59.35
7168;BME280;3625;51.762;14.320;2023-08-08T09:09:53;100273.25;;;20.73;57.01
7168;BME280;3625;51.762;14.320;2023-08-08T09:12:24;100270.47;;;20.33;56.64
7168;BME280;3625;51.762;14.320;2023-08-08T09:14:56;100246.91;;;20.10;57.16
7168;BME280;3625;51.762;14.320;2023-08-08T09:17:25;100296.66;;;20.44;57.25
7168;BME280;3625;51.762;14.320;2023-08-08T09:20:14;100297.56;;;20.16;58.92
7168;BME280;3625;51.762;14.320;2023-08-08T09:22:43;100293.09;;;19.74;60.48
7168;BME280;3625;51.762;14.320;2023-08-08T09:25:13;100289.94;;;19.53;62.94
7168;BME280;3625;51.762;14.320;2023-08-08T09:27:43;100286.97;;;19.57;61.18
7168;BME280;3625;51.762;14.320;2023-08-08T09:30:14;100284.75;;;19.64;60.92
7168;BME280;3625;51.762;14.320;2023-08-08T09:32:44;100285.06;;;19.88;60.94
7168;BME280;3625;51.762;14.320;2023-08-08T09:35:15;100297.31;;;20.33;59.04
7168;BME280;3625;51.762;14.320;2023-08-08T09:37:44;100289.56;;;20.28;58.62
7168;BME280;3625;51.762;14.320;2023-08-08T09:40:13;100278.31;;;19.95;60.33
7168;BME280;3625;51.762;14.320;2023-08-08T09:42:43;100271.53;;;20.30;59.67
7168;BME280;3625;51.762;14.320;2023-08-08T09:45:12;100280.13;;;21.16;57.94
7168;BME280;3625;51.762;14.320;2023-08-08T09:47:41;100284.44;;;21.95;54.27
7168;BME280;3625;51.762;14.320;2023-08-08T09:50:10;100295.16;;;22.33;51.75
7168;BME280;3625;51.762;14.320;2023-08-08T09:52:38;100296.38;;;22.52;50.40
7168;BME280;3625;51.762;14.320;2023-08-08T09:55:11;100267.22;;;22.57;50.07
7168;BME280;3625;51.762;14.320;2023-08-08T09:57:43;100241.75;;;22.62;49.63
7168;BME280;3625;51.762;14.320;2023-08-08T10:00:13;100292.00;;;23.10;49.28
7168;BME280;3625;51.762;14.320;2023-08-08T10:02:45;100276.34;;;23.26;48.87
7168;BME280;3625;51.762;14.320;2023-08-08T10:05:14;100266.28;;;23.17;47.88
7168;BME280;3625;51.762;14.320;2023-08-08T10:07:44;100298.41;;;22.85;49.51
7168;BME280;3625;51.762;14.320;2023-08-08T10:10:13;100287.50;;;22.63;50.20
7168;BME280;3625;51.762;14.320;2023-08-08T10:12:43;100288.09;;;22.67;49.96
7168;BME280;3625;51.762;14.320;2023-08-08T10:15:13;100282.84;;;23.24;49.31
7168;BME280;3625;51.762;14.320;2023-08-08T10:17:45;100280.75;;;23.27;48.47
7168;BME280;3625;51.762;14.320;2023-08-08T10:20:15;100279.22;;;23.47;48.18
7168;BME280;3625;51.762;14.320;2023-08-08T10:22:48;100275.38;;;23.39;48.34
7168;BME280;3625;51.762;14.320;2023-08-08T10:25:22;100278.50;;;22.99;47.51
7168;BME280;3625;51.762;14.320;2023-08-08T10:28:05;100243.22;;;22.31;48.88
7168;BME280;3625;51.762;14.320;2023-08-08T10:30:54;100271.09;;;22.90;49.55
7168;BME280;3625;51.762;14.320;2023-08-08T10:33:25;100232.44;;;23.24;48.38
7168;BME280;3625;51.762;14.320;2023-08-08T10:36:00;100263.56;;;23.86;47.99
7168;BME280;3625;51.762;14.320;2023-08-08T10:38:41;100259.25;;;23.50;46.04
7168;BME280;3625;51.762;14.320;2023-08-08T10:41:12;100264.47;;;23.40;47.81
7168;BME280;3625;51.762;14.320;2023-08-08T10:43:50;100264.28;;;23.54;47.43
7168;BME280;3625;51.762;14.320;2023-08-08T10:46:28;100256.22;;;23.30;46.75
7168;BME280;3625;51.762;14.320;2023-08-08T10:49:00;100239.91;;;23.21;46.94
7168;BME280;3625;51.762;14.320;2023-08-08T10:51:35;100258.91;;;23.19;47.65
7168;BME280;3625;51.762;14.320;2023-08-08T10:54:05;100246.22;;;23.55;48.11
7168;BME280;3625;51.762;14.320;2023-08-08T10:56:36;100238.50;;;23.50;46.91
7168;BME280;3625;51.762;14.320;2023-08-08T10:59:15;100246.19;;;22.39;48.38
7168;BME280;3625;51.762;14.320;2023-08-08T11:01:49;100243.28;;;21.93;51.06
7168;BME280;3625;51.762;14.320;2023-08-08T11:04:23;100234.03;;;21.71;51.92
7168;BME280;3625;51.762;14.320;2023-08-08T11:06:54;100233.00;;;21.49;54.16
7168;BME280;3625;51.762;14.320;2023-08-08T11:09:23;100229.41;;;21.73;53.45
7168;BME280;3625;51.762;14.320;2023-08-08T11:11:53;100221.81;;;21.29;52.50
7168;BME280;3625;51.762;14.320;2023-08-08T11:14:27;100232.34;;;20.67;54.21
7168;BME280;3625;51.762;14.320;2023-08-08T11:16:55;100218.53;;;20.32;56.42
7168;BME280;3625;51.762;14.320;2023-08-08T11:19:24;100210.38;;;20.07;57.55
7168;BME280;3625;51.762;14.320;2023-08-08T11:21:53;100216.25;;;20.00;59.70
7168;BME280;3625;51.762;14.320;2023-08-08T11:24:21;100205.81;;;19.95;58.04
7168;BME280;3625;51.762;14.320;2023-08-08T11:26:50;100206.28;;;20.02;58.13
7168;BME280;3625;51.762;14.320;2023-08-08T11:29:28;100211.47;;;20.05;58.26
7168;BME280;3625;51.762;14.320;2023-08-08T11:32:00;100206.00;;;20.06;57.96
7168;BME280;3625;51.762;14.320;2023-08-08T11:34:31;100205.13;;;20.06;57.85
7168;BME280;3625;51.762;14.320;2023-08-08T11:37:02;100192.91;;;20.14;57.66
7168;BME280;3625;51.762;14.320;2023-08-08T11:39:31;100188.16;;;20.05;57.44
7168;BME280;3625;51.762;14.320;2023-08-08T11:42:02;100192.38;;;19.95;56.22
7168;BME280;3625;51.762;14.320;2023-08-08T11:44:33;100143.88;;;19.84;56.56
7168;BME280;3625;51.762;14.320;2023-08-08T11:47:03;100104.72;;;19.94;57.64
7168;BME280;3625;51.762;14.320;2023-08-08T11:49:40;100178.16;;;20.34;55.38
7168;BME280;3625;51.762;14.320;2023-08-08T11:52:13;100181.84;;;20.19;56.10
7168;BME280;3625;51.762;14.320;2023-08-08T11:54:42;100174.66;;;20.19;57.59
7168;BME280;3625;51.762;14.320;2023-08-08T11:57:10;100181.50;;;20.11;56.09
7168;BME280;3625;51.762;14.320;2023-08-08T11:59:41;100183.13;;;20.13;57.02
7168;BME280;3625;51.762;14.320;2023-08-08T12:02:10;100175.19;;;20.39;56.77
7168;BME280;3625;51.762;14.320;2023-08-08T12:04:43;100168.38;;;21.10;55.28
7168;BME280;3625;51.762;14.320;2023-08-08T12:07:11;100179.16;;;21.49;53.05
7168;BME280;3625;51.762;14.320;2023-08-08T12:09:40;100174.41;;;21.89;51.86
7168;BME280;3625;51.762;14.320;2023-08-08T12:12:09;100178.16;;;22.11;51.09
7168;BME280;3625;51.762;14.320;2023-08-08T12:14:42;100130.25;;;22.04;50.22
7168;BME280;3625;51.762;14.320;2023-08-08T12:17:23;100190.31;;;22.17;47.89
7168;BME280;3625;51.762;14.320;2023-08-08T12:19:52;100182.34;;;22.39;47.09
7168;BME280;3625;51.762;14.320;2023-08-08T12:22:21;100176.03;;;22.86;47.30
7168;BME280;3625;51.762;14.320;2023-08-08T12:24:50;100173.28;;;22.75;46.74
7168;BME280;3625;51.762;14.320;2023-08-08T12:27:18;100180.75;;;22.13;47.32
7168;BME280;3625;51.762;14.320;2023-08-08T12:29:48;100160.22;;;21.50;49.50
7168;BME280;3625;51.762;14.320;2023-08-08T12:32:18;100177.16;;;21.27;49.50
7168;BME280;3625;51.762;14.320;2023-08-08T12:34:47;100175.28;;;21.02;50.04
7168;BME280;3625;51.762;14.320;2023-08-08T12:37:16;100177.97;;;20.89;50.50
7168;BME280;3625;51.762;14.320;2023-08-08T12:39:45;100161.31;;;21.09;51.16
7168;BME280;3625;51.762;14.320;2023-08-08T12:42:14;100182.09;;;21.33;50.63
7168;BME280;3625;51.762;14.320;2023-08-08T12:44:43;100175.84;;;21.20;50.36
7168;BME280;3625;51.762;14.320;2023-08-08T12:47:13;100179.28;;;21.09;50.93
7168;BME280;3625;51.762;14.320;2023-08-08T12:49:42;100179.81;;;21.39;49.93
7168;BME280;3625;51.762;14.320;2023-08-08T12:52:11;100179.59;;;22.04;48.59
7168;BME280;3625;51.762;14.320;2023-08-08T12:54:40;100178.00;;;22.61;47.57
7168;BME280;3625;51.762;14.320;2023-08-08T12:57:09;100149.69;;;22.66;47.23
7168;BME280;3625;51.762;14.320;2023-08-08T12:59:37;100171.97;;;22.92;46.72
7168;BME280;3625;51.762;14.320;2023-08-08T13:02:07;100163.41;;;22.87;46.94
7168;BME280;3625;51.762;14.320;2023-08-08T13:04:37;100165.50;;;22.94;46.61
7168;BME280;3625;51.762;14.320;2023-08-08T13:07:06;100154.47;;;22.98;45.74
7168;BME280;3625;51.762;14.320;2023-08-08T13:09:34;100159.88;;;23.20;45.68
7168;BME280;3625;51.762;14.320;2023-08-08T13:12:04;100160.31;;;23.60;44.89
7168;BME280;3625;51.762;14.320;2023-08-08T13:14:32;100093.75;;;23.59;44.46
7168;BME280;3625;51.762;14.320;2023-08-08T13:17:01;100158.28;;;23.95;43.37